Terminal Aerodrome Forecast
Issued by NWS

Home | Current Version | Previous Version | Text Only | Print | Product List | Glossary On
Versions: 1 2 3 4 5 6 7 8 9 10 11 12 13 14 15 16 17 18 19 20 21 22 23 24 25 26
000
FTUS41 KBUF 302300
TAFJHW
TAF
KJHW 302337Z 3100/3124 18008KT P6SM BKN080
     FM310400 19008KT P6SM BKN045
     FM310500 19007KT P6SM VCTS OVC045CB
     FM310800 21007KT 6SM -SHRA VCTS OVC050CB
     FM311600 23010KT P6SM VCSH BKN025
     FM312300 23006KT 6SM BR BKN020
      AMD LTD TO CLD VIS AND WIND=

USA.gov is the U.S. government's official web portal to all federal, state and local government web resources and services.